Pittsburgh, Pennsylvania
Traffic Map
Current Weather Conditions
Pittsburgh, Pennsylvania
Clear
Clear

Feels Like: 4°
Wind Chill: Ceiling: Unl
Heat Index: Visibility: 10mi
Dew Point: Wind: 6mph
Humidity: 74% Direction: 270° (W)
Pressure: 30.1in Gusts: 0mph
Raw Report DataKAGC 301353Z 27005KT 10SM CLR 06/02 A3010 RMK AO2 SLP202 T00610017
Traffic Incident Summary
Active as of:
Severity:
Category:
InformationThere was an issue retrieving the traffic information for this location. Please try a different location or try again shortly.
Advertisements
Track Severe Weather on mobile